sensor_id;sensor_type;location;lat;lon;timestamp;pressure;altitude;pressure_sealevel;temperature;humidity
69971;BME280;57301;50.328;8.542;2023-02-01T00:00:23;98882.09;;;4.18;91.07
69971;BME280;57301;50.328;8.542;2023-02-01T00:02:50;98889.25;;;4.16;90.62
69971;BME280;57301;50.328;8.542;2023-02-01T00:05:16;98886.00;;;4.25;90.22
69971;BME280;57301;50.328;8.542;2023-02-01T00:07:47;98888.94;;;4.33;90.29
69971;BME280;57301;50.328;8.542;2023-02-01T00:10:14;98883.53;;;4.47;89.44
69971;BME280;57301;50.328;8.542;2023-02-01T00:12:41;98869.06;;;4.53;89.06
69971;BME280;57301;50.328;8.542;2023-02-01T00:15:07;98875.75;;;4.46;88.72
69971;BME280;57301;50.328;8.542;2023-02-01T00:17:34;98877.53;;;4.20;89.66
69971;BME280;57301;50.328;8.542;2023-02-01T00:20:01;98878.91;;;4.25;90.06
69971;BME280;57301;50.328;8.542;2023-02-01T00:22:27;98880.06;;;4.34;89.93
69971;BME280;57301;50.328;8.542;2023-02-01T00:24:54;98863.91;;;4.39;90.16
69971;BME280;57301;50.328;8.542;2023-02-01T00:27:20;98868.88;;;4.18;91.60
69971;BME280;57301;50.328;8.542;2023-02-01T00:29:47;98862.84;;;4.16;92.00
69971;BME280;57301;50.328;8.542;2023-02-01T00:32:14;98859.16;;;4.18;91.51
69971;BME280;57301;50.328;8.542;2023-02-01T00:34:40;98863.91;;;4.26;91.72
69971;BME280;57301;50.328;8.542;2023-02-01T00:37:07;98861.94;;;4.42;91.08
69971;BME280;57301;50.328;8.542;2023-02-01T00:39:33;98853.47;;;4.37;91.39
69971;BME280;57301;50.328;8.542;2023-02-01T00:42:00;98856.31;;;4.34;92.09
69971;BME280;57301;50.328;8.542;2023-02-01T00:44:28;98864.44;;;4.56;91.13
69971;BME280;57301;50.328;8.542;2023-02-01T00:46:59;98861.16;;;4.40;91.07
69971;BME280;57301;50.328;8.542;2023-02-01T00:49:26;98864.03;;;4.50;91.05
69971;BME280;57301;50.328;8.542;2023-02-01T00:51:53;98858.50;;;4.53;91.23
69971;BME280;57301;50.328;8.542;2023-02-01T00:54:19;98850.81;;;4.50;91.41
69971;BME280;57301;50.328;8.542;2023-02-01T00:56:46;98847.53;;;4.34;91.63
69971;BME280;57301;50.328;8.542;2023-02-01T00:59:12;98841.72;;;4.54;90.85
69971;BME280;57301;50.328;8.542;2023-02-01T01:01:39;98846.69;;;4.58;90.44
69971;BME280;57301;50.328;8.542;2023-02-01T01:04:05;98855.47;;;4.46;90.99
69971;BME280;57301;50.328;8.542;2023-02-01T01:06:33;98843.63;;;4.52;90.92
69971;BME280;57301;50.328;8.542;2023-02-01T01:09:02;98845.22;;;4.54;90.47
69971;BME280;57301;50.328;8.542;2023-02-01T01:11:31;98854.72;;;4.44;90.80
69971;BME280;57301;50.328;8.542;2023-02-01T01:13:59;98853.88;;;4.56;90.94
69971;BME280;57301;50.328;8.542;2023-02-01T01:16:28;98850.09;;;4.61;90.28
69971;BME280;57301;50.328;8.542;2023-02-01T01:18:55;98855.03;;;4.52;90.43
69971;BME280;57301;50.328;8.542;2023-02-01T01:21:22;98867.50;;;4.50;89.91
69971;BME280;57301;50.328;8.542;2023-02-01T01:23:49;98860.72;;;4.72;89.39
69971;BME280;57301;50.328;8.542;2023-02-01T01:26:18;98843.94;;;4.73;88.99
69971;BME280;57301;50.328;8.542;2023-02-01T01:28:45;98846.91;;;4.55;89.92
69971;BME280;57301;50.328;8.542;2023-02-01T01:31:13;98843.72;;;4.63;89.98
69971;BME280;57301;50.328;8.542;2023-02-01T01:33:40;98840.34;;;4.61;89.07
69971;BME280;57301;50.328;8.542;2023-02-01T01:36:08;98845.66;;;4.61;88.94
69971;BME280;57301;50.328;8.542;2023-02-01T01:38:39;98852.50;;;4.64;88.78
69971;BME280;57301;50.328;8.542;2023-02-01T01:41:06;98850.09;;;4.61;88.81
69971;BME280;57301;50.328;8.542;2023-02-01T01:44:00;98842.56;;;4.67;88.59
69971;BME280;57301;50.328;8.542;2023-02-01T01:46:29;98848.22;;;4.87;88.70
69971;BME280;57301;50.328;8.542;2023-02-01T01:51:30;98849.84;;;4.64;88.45
69971;BME280;57301;50.328;8.542;2023-02-01T01:54:06;98845.22;;;4.67;89.51
69971;BME280;57301;50.328;8.542;2023-02-01T01:56:34;98832.41;;;4.74;89.07
69971;BME280;57301;50.328;8.542;2023-02-01T01:59:02;98813.47;;;4.80;87.30
69971;BME280;57301;50.328;8.542;2023-02-01T02:01:28;98803.34;;;4.74;87.78
69971;BME280;57301;50.328;8.542;2023-02-01T02:03:56;98814.72;;;4.87;84.77
69971;BME280;57301;50.328;8.542;2023-02-01T02:06:29;98814.09;;;4.83;85.86
69971;BME280;57301;50.328;8.542;2023-02-01T02:08:56;98794.59;;;4.73;87.41
69971;BME280;57301;50.328;8.542;2023-02-01T02:11:23;98804.47;;;4.82;87.03
69971;BME280;57301;50.328;8.542;2023-02-01T02:13:52;98801.72;;;4.84;86.86
69971;BME280;57301;50.328;8.542;2023-02-01T02:19:25;98798.34;;;4.82;88.06
69971;BME280;57301;50.328;8.542;2023-02-01T02:33:42;98817.69;;;4.82;87.14
69971;BME280;57301;50.328;8.542;2023-02-01T02:45:23;98810.69;;;4.94;84.71
69971;BME280;57301;50.328;8.542;2023-02-01T02:48:19;98809.00;;;4.93;84.82
69971;BME280;57301;50.328;8.542;2023-02-01T02:51:04;98806.19;;;5.07;83.71
69971;BME280;57301;50.328;8.542;2023-02-01T02:53:57;98795.28;;;5.12;82.57
69971;BME280;57301;50.328;8.542;2023-02-01T02:56:44;98808.19;;;4.80;82.26
69971;BME280;57301;50.328;8.542;2023-02-01T02:59:29;98794.25;;;4.78;82.64
69971;BME280;57301;50.328;8.542;2023-02-01T03:02:15;98803.88;;;4.79;83.38
69971;BME280;57301;50.328;8.542;2023-02-01T03:05:02;98784.78;;;4.99;82.17
69971;BME280;57301;50.328;8.542;2023-02-01T03:10:17;98782.97;;;5.00;81.71
69971;BME280;57301;50.328;8.542;2023-02-01T03:12:49;98783.47;;;4.81;82.00
69971;BME280;57301;50.328;8.542;2023-02-01T03:15:37;98780.59;;;4.84;81.58
69971;BME280;57301;50.328;8.542;2023-02-01T03:18:13;98785.28;;;5.04;81.31
69971;BME280;57301;50.328;8.542;2023-02-01T03:20:45;98774.47;;;4.83;81.81
69971;BME280;57301;50.328;8.542;2023-02-01T03:23:14;98768.97;;;4.87;81.54
69971;BME280;57301;50.328;8.542;2023-02-01T03:25:42;98775.53;;;4.81;82.57
69971;BME280;57301;50.328;8.542;2023-02-01T03:28:10;98772.06;;;4.80;81.34
69971;BME280;57301;50.328;8.542;2023-02-01T03:30:40;98768.47;;;5.05;80.99
69971;BME280;57301;50.328;8.542;2023-02-01T03:33:17;98773.03;;;5.03;80.74
69971;BME280;57301;50.328;8.542;2023-02-01T03:35:59;98769.50;;;5.16;79.90
69971;BME280;57301;50.328;8.542;2023-02-01T03:38:34;98771.31;;;5.02;80.34
69971;BME280;57301;50.328;8.542;2023-02-01T03:41:26;98772.72;;;4.95;79.45
69971;BME280;57301;50.328;8.542;2023-02-01T03:44:13;98777.06;;;4.96;80.33
69971;BME280;57301;50.328;8.542;2023-02-01T03:46:48;98765.19;;;4.78;80.04
69971;BME280;57301;50.328;8.542;2023-02-01T03:49:33;98762.44;;;4.79;80.33
69971;BME280;57301;50.328;8.542;2023-02-01T03:52:01;98760.47;;;4.94;80.63
69971;BME280;57301;50.328;8.542;2023-02-01T03:54:29;98750.09;;;5.04;79.11
69971;BME280;57301;50.328;8.542;2023-02-01T03:56:59;98751.44;;;4.85;79.28
69971;BME280;57301;50.328;8.542;2023-02-01T03:59:27;98761.94;;;4.74;79.70
69971;BME280;57301;50.328;8.542;2023-02-01T04:01:54;98769.28;;;4.82;80.05
69971;BME280;57301;50.328;8.542;2023-02-01T04:04:20;98769.53;;;4.79;80.56
69971;BME280;57301;50.328;8.542;2023-02-01T04:06:48;98776.94;;;4.74;81.08
69971;BME280;57301;50.328;8.542;2023-02-01T04:09:16;98774.06;;;4.77;80.15
69971;BME280;57301;50.328;8.542;2023-02-01T04:11:43;98779.34;;;4.77;80.63
69971;BME280;57301;50.328;8.542;2023-02-01T04:14:10;98782.44;;;4.71;80.39
69971;BME280;57301;50.328;8.542;2023-02-01T04:16:36;98777.47;;;4.79;81.53
69971;BME280;57301;50.328;8.542;2023-02-01T04:19:02;98779.47;;;4.75;81.45
69971;BME280;57301;50.328;8.542;2023-02-01T04:21:29;98776.63;;;4.66;80.72
69971;BME280;57301;50.328;8.542;2023-02-01T04:23:56;98786.81;;;4.83;80.86
69971;BME280;57301;50.328;8.542;2023-02-01T04:26:22;98781.50;;;4.96;80.17
69971;BME280;57301;50.328;8.542;2023-02-01T04:28:49;98784.44;;;4.80;81.53
69971;BME280;57301;50.328;8.542;2023-02-01T04:31:16;98783.22;;;4.84;80.83
69971;BME280;57301;50.328;8.542;2023-02-01T04:33:43;98779.66;;;4.72;81.39
69971;BME280;57301;50.328;8.542;2023-02-01T04:36:10;98777.50;;;4.90;80.75
69971;BME280;57301;50.328;8.542;2023-02-01T04:38:36;98777.09;;;4.83;80.80
69971;BME280;57301;50.328;8.542;2023-02-01T04:41:03;98781.25;;;4.75;80.73
69971;BME280;57301;50.328;8.542;2023-02-01T04:43:29;98779.47;;;4.75;81.10
69971;BME280;57301;50.328;8.542;2023-02-01T04:45:56;98780.59;;;4.84;80.92
69971;BME280;57301;50.328;8.542;2023-02-01T04:48:22;98770.66;;;4.88;80.44
69971;BME280;57301;50.328;8.542;2023-02-01T04:50:50;98764.19;;;4.92;80.76
69971;BME280;57301;50.328;8.542;2023-02-01T04:53:17;98765.94;;;4.80;81.17
69971;BME280;57301;50.328;8.542;2023-02-01T04:55:44;98760.81;;;4.90;81.12
69971;BME280;57301;50.328;8.542;2023-02-01T04:58:10;98765.25;;;4.89;81.47
69971;BME280;57301;50.328;8.542;2023-02-01T05:00:37;98772.16;;;5.03;80.56
69971;BME280;57301;50.328;8.542;2023-02-01T05:03:03;98766.44;;;5.09;79.46
69971;BME280;57301;50.328;8.542;2023-02-01T05:05:30;98771.44;;;5.01;79.84
69971;BME280;57301;50.328;8.542;2023-02-01T05:07:57;98763.97;;;4.95;81.01
69971;BME280;57301;50.328;8.542;2023-02-01T05:10:24;98753.00;;;5.12;79.92
69971;BME280;57301;50.328;8.542;2023-02-01T05:12:51;98761.84;;;5.00;79.69
69971;BME280;57301;50.328;8.542;2023-02-01T05:15:35;98761.38;;;5.06;78.89
69971;BME280;57301;50.328;8.542;2023-02-01T05:18:02;98763.25;;;5.17;78.92
69971;BME280;57301;50.328;8.542;2023-02-01T05:20:29;98764.09;;;5.17;78.01
69971;BME280;57301;50.328;8.542;2023-02-01T05:22:55;98762.78;;;4.99;78.53
69971;BME280;57301;50.328;8.542;2023-02-01T05:25:21;98761.25;;;4.83;79.11
69971;BME280;57301;50.328;8.542;2023-02-01T05:27:48;98763.44;;;4.90;78.00
69971;BME280;57301;50.328;8.542;2023-02-01T05:30:15;98758.22;;;5.01;77.49
69971;BME280;57301;50.328;8.542;2023-02-01T05:32:41;98755.38;;;4.80;78.13
69971;BME280;57301;50.328;8.542;2023-02-01T05:35:08;98745.75;;;4.79;78.45
69971;BME280;57301;50.328;8.542;2023-02-01T05:37:35;98750.53;;;4.74;77.80
69971;BME280;57301;50.328;8.542;2023-02-01T05:40:02;98754.13;;;4.73;77.86
69971;BME280;57301;50.328;8.542;2023-02-01T05:42:28;98748.59;;;4.76;78.29
69971;BME280;57301;50.328;8.542;2023-02-01T05:44:55;98756.50;;;4.52;78.70
69971;BME280;57301;50.328;8.542;2023-02-01T05:47:21;98756.38;;;4.53;78.39
69971;BME280;57301;50.328;8.542;2023-02-01T05:49:48;98742.75;;;4.47;79.07
69971;BME280;57301;50.328;8.542;2023-02-01T05:52:14;98736.34;;;4.38;79.07
69971;BME280;57301;50.328;8.542;2023-02-01T05:54:46;98747.66;;;4.27;79.52
69971;BME280;57301;50.328;8.542;2023-02-01T05:57:13;98746.06;;;4.38;79.06
69971;BME280;57301;50.328;8.542;2023-02-01T05:59:40;98748.41;;;4.17;80.32
69971;BME280;57301;50.328;8.542;2023-02-01T06:02:12;98749.38;;;4.16;80.08
69971;BME280;57301;50.328;8.542;2023-02-01T06:04:38;98746.53;;;4.06;80.88
69971;BME280;57301;50.328;8.542;2023-02-01T06:07:06;98746.44;;;4.08;79.92
69971;BME280;57301;50.328;8.542;2023-02-01T06:09:35;98735.47;;;4.01;80.23
69971;BME280;57301;50.328;8.542;2023-02-01T06:12:02;98751.69;;;4.08;80.01
69971;BME280;57301;50.328;8.542;2023-02-01T06:14:29;98748.75;;;3.99;80.57
69971;BME280;57301;50.328;8.542;2023-02-01T06:16:56;98752.84;;;4.03;79.95
69971;BME280;57301;50.328;8.542;2023-02-01T06:19:23;98759.22;;;3.88;81.35
69971;BME280;57301;50.328;8.542;2023-02-01T06:21:50;98759.22;;;3.88;81.03
69971;BME280;57301;50.328;8.542;2023-02-01T06:24:17;98756.75;;;3.98;80.54
69971;BME280;57301;50.328;8.542;2023-02-01T06:26:43;98756.69;;;3.87;80.75
69971;BME280;57301;50.328;8.542;2023-02-01T06:29:10;98753.28;;;3.85;80.13
69971;BME280;57301;50.328;8.542;2023-02-01T06:31:37;98749.28;;;3.92;79.71
69971;BME280;57301;50.328;8.542;2023-02-01T06:34:03;98768.38;;;3.95;79.94
69971;BME280;57301;50.328;8.542;2023-02-01T06:36:30;98758.47;;;4.12;78.74
69971;BME280;57301;50.328;8.542;2023-02-01T06:38:57;98762.78;;;3.87;79.68
69971;BME280;57301;50.328;8.542;2023-02-01T06:41:26;98768.81;;;4.02;78.64
69971;BME280;57301;50.328;8.542;2023-02-01T06:43:55;98768.81;;;4.02;79.39
69971;BME280;57301;50.328;8.542;2023-02-01T06:46:21;98767.13;;;3.88;79.96
69971;BME280;57301;50.328;8.542;2023-02-01T06:48:48;98775.47;;;3.95;79.76
69971;BME280;57301;50.328;8.542;2023-02-01T06:51:19;98756.22;;;3.93;79.65
69971;BME280;57301;50.328;8.542;2023-02-01T06:53:46;98759.41;;;3.85;79.55
69971;BME280;57301;50.328;8.542;2023-02-01T06:56:13;98759.41;;;3.85;80.22
69971;BME280;57301;50.328;8.542;2023-02-01T06:58:39;98753.28;;;3.85;79.61
69971;BME280;57301;50.328;8.542;2023-02-01T07:01:07;98746.22;;;3.85;79.83
69971;BME280;57301;50.328;8.542;2023-02-01T07:03:34;98756.03;;;3.96;79.26
69971;BME280;57301;50.328;8.542;2023-02-01T07:06:02;98752.03;;;3.90;79.95
69971;BME280;57301;50.328;8.542;2023-02-01T07:08:34;98742.41;;;4.02;79.06
69971;BME280;57301;50.328;8.542;2023-02-01T07:11:10;98734.38;;;4.03;78.84
69971;BME280;57301;50.328;8.542;2023-02-01T07:13:37;98729.09;;;4.16;79.29
69971;BME280;57301;50.328;8.542;2023-02-01T07:16:06;98734.69;;;4.24;78.41
69971;BME280;57301;50.328;8.542;2023-02-01T07:18:33;98753.34;;;4.34;77.85
69971;BME280;57301;50.328;8.542;2023-02-01T07:21:00;98760.94;;;4.51;77.02
69971;BME280;57301;50.328;8.542;2023-02-01T07:23:27;98776.44;;;4.56;77.55
69971;BME280;57301;50.328;8.542;2023-02-01T07:25:55;98767.91;;;4.40;76.15
69971;BME280;57301;50.328;8.542;2023-02-01T07:28:22;98772.56;;;4.49;76.74
69971;BME280;57301;50.328;8.542;2023-02-01T07:30:48;98768.41;;;4.57;76.63
69971;BME280;57301;50.328;8.542;2023-02-01T07:33:19;98773.59;;;4.46;76.36
69971;BME280;57301;50.328;8.542;2023-02-01T07:35:46;98776.34;;;4.57;76.27
69971;BME280;57301;50.328;8.542;2023-02-01T07:38:13;98798.75;;;4.89;75.21
69971;BME280;57301;50.328;8.542;2023-02-01T07:40:40;98803.84;;;4.92;74.75
69971;BME280;57301;50.328;8.542;2023-02-01T07:43:07;98809.47;;;5.11;73.70
69971;BME280;57301;50.328;8.542;2023-02-01T07:45:35;98809.72;;;4.95;73.73
69971;BME280;57301;50.328;8.542;2023-02-01T07:48:02;98803.31;;;4.87;74.28
69971;BME280;57301;50.328;8.542;2023-02-01T07:50:29;98802.09;;;5.03;74.47
69971;BME280;57301;50.328;8.542;2023-02-01T07:52:58;98800.78;;;4.85;74.08
69971;BME280;57301;50.328;8.542;2023-02-01T07:55:25;98794.72;;;4.96;73.09
69971;BME280;57301;50.328;8.542;2023-02-01T07:57:51;98795.28;;;4.88;73.10
69971;BME280;57301;50.328;8.542;2023-02-01T08:00:18;98800.97;;;4.95;74.11
69971;BME280;57301;50.328;8.542;2023-02-01T08:03:04;98808.91;;;5.19;72.31
69971;BME280;57301;50.328;8.542;2023-02-01T08:05:31;98808.75;;;4.96;73.44
69971;BME280;57301;50.328;8.542;2023-02-01T08:07:57;98809.00;;;4.93;73.57
69971;BME280;57301;50.328;8.542;2023-02-01T08:10:24;98818.69;;;5.05;73.52
69971;BME280;57301;50.328;8.542;2023-02-01T08:12:51;98819.50;;;4.82;74.31
69971;BME280;57301;50.328;8.542;2023-02-01T08:15:18;98814.44;;;5.16;72.76
69971;BME280;57301;50.328;8.542;2023-02-01T08:17:48;98812.72;;;5.15;72.80
69971;BME280;57301;50.328;8.542;2023-02-01T08:20:16;98826.09;;;5.00;73.65
69971;BME280;57301;50.328;8.542;2023-02-01T08:22:42;98825.03;;;5.03;73.48
69971;BME280;57301;50.328;8.542;2023-02-01T08:25:10;98832.78;;;4.93;73.94
69971;BME280;57301;50.328;8.542;2023-02-01T08:27:37;98831.09;;;4.92;73.58
69971;BME280;57301;50.328;8.542;2023-02-01T08:30:04;98828.56;;;5.15;73.10
69971;BME280;57301;50.328;8.542;2023-02-01T08:32:33;98822.78;;;4.85;73.31
69971;BME280;57301;50.328;8.542;2023-02-01T08:34:59;98820.41;;;4.94;73.17
69971;BME280;57301;50.328;8.542;2023-02-01T08:37:26;98836.47;;;4.91;73.83
69971;BME280;57301;50.328;8.542;2023-02-01T08:39:53;98827.38;;;4.95;74.06
69971;BME280;57301;50.328;8.542;2023-02-01T08:42:19;98819.38;;;4.83;74.50
69971;BME280;57301;50.328;8.542;2023-02-01T08:45:05;98833.88;;;4.78;74.71
69971;BME280;57301;50.328;8.542;2023-02-01T08:47:34;98825.06;;;4.90;74.37
69971;BME280;57301;50.328;8.542;2023-02-01T08:50:01;98824.91;;;4.80;74.64
69971;BME280;57301;50.328;8.542;2023-02-01T08:52:28;98836.09;;;5.08;74.67
69971;BME280;57301;50.328;8.542;2023-02-01T08:54:54;98830.06;;;5.19;73.89
69971;BME280;57301;50.328;8.542;2023-02-01T08:57:21;98835.19;;;4.96;74.11
69971;BME280;57301;50.328;8.542;2023-02-01T08:59:47;98837.13;;;5.18;73.40
69971;BME280;57301;50.328;8.542;2023-02-01T09:02:16;98835.25;;;5.07;73.58
69971;BME280;57301;50.328;8.542;2023-02-01T09:04:43;98832.94;;;5.16;73.70
69971;BME280;57301;50.328;8.542;2023-02-01T09:07:09;98824.00;;;4.93;74.37
69971;BME280;57301;50.328;8.542;2023-02-01T09:09:36;98834.06;;;4.88;74.54
69971;BME280;57301;50.328;8.542;2023-02-01T09:12:03;98821.00;;;5.10;73.62
69971;BME280;57301;50.328;8.542;2023-02-01T09:14:30;98841.63;;;5.05;73.60
69971;BME280;57301;50.328;8.542;2023-02-01T09:16:56;98832.94;;;5.16;73.24
69971;BME280;57301;50.328;8.542;2023-02-01T09:19:23;98832.19;;;5.13;73.85
69971;BME280;57301;50.328;8.542;2023-02-01T09:21:52;98834.31;;;5.08;73.54
69971;BME280;57301;50.328;8.542;2023-02-01T09:24:18;98828.25;;;5.19;73.86
69971;BME280;57301;50.328;8.542;2023-02-01T09:26:45;98832.38;;;5.23;73.61
69971;BME280;57301;50.328;8.542;2023-02-01T09:29:13;98834.00;;;5.37;72.36
69971;BME280;57301;50.328;8.542;2023-02-01T09:31:40;98837.72;;;5.34;72.93
69971;BME280;57301;50.328;8.542;2023-02-01T09:34:15;98839.91;;;5.41;73.13
69971;BME280;57301;50.328;8.542;2023-02-01T09:36:42;98857.00;;;5.48;72.70
69971;BME280;57301;50.328;8.542;2023-02-01T09:39:08;98851.34;;;5.65;71.81
69971;BME280;57301;50.328;8.542;2023-02-01T09:41:43;98863.34;;;5.45;72.40
69971;BME280;57301;50.328;8.542;2023-02-01T09:47:01;98868.94;;;5.29;72.61
69971;BME280;57301;50.328;8.542;2023-02-01T09:49:32;98860.13;;;5.42;72.70
69971;BME280;57301;50.328;8.542;2023-02-01T09:52:04;98861.06;;;5.41;71.88
69971;BME280;57301;50.328;8.542;2023-02-01T09:54:42;98853.69;;;5.33;72.91
69971;BME280;57301;50.328;8.542;2023-02-01T09:57:19;98853.34;;;5.61;71.53
69971;BME280;57301;50.328;8.542;2023-02-01T09:59:54;98839.03;;;5.40;72.61
69971;BME280;57301;50.328;8.542;2023-02-01T10:02:25;98843.72;;;5.36;72.57
69971;BME280;57301;50.328;8.542;2023-02-01T10:04:55;98843.50;;;5.39;72.73
69971;BME280;57301;50.328;8.542;2023-02-01T10:07:51;98838.81;;;5.67;71.71
69971;BME280;57301;50.328;8.542;2023-02-01T10:10:30;98839.91;;;5.76;71.98
69971;BME280;57301;50.328;8.542;2023-02-01T10:13:13;98837.13;;;5.66;71.19
69971;BME280;57301;50.328;8.542;2023-02-01T10:16:16;98843.06;;;5.81;70.08
69971;BME280;57301;50.328;8.542;2023-02-01T10:19:03;98826.66;;;5.64;71.29
69971;BME280;57301;50.328;8.542;2023-02-01T10:21:38;98819.75;;;5.86;70.65
69971;BME280;57301;50.328;8.542;2023-02-01T10:26:47;98812.00;;;6.07;69.64
69971;BME280;57301;50.328;8.542;2023-02-01T10:29:19;98811.53;;;6.13;69.00
69971;BME280;57301;50.328;8.542;2023-02-01T10:31:46;98805.69;;;6.54;68.41
69971;BME280;57301;50.328;8.542;2023-02-01T10:34:22;98810.25;;;6.41;67.88
69971;BME280;57301;50.328;8.542;2023-02-01T10:37:01;98814.19;;;6.13;68.19
69971;BME280;57301;50.328;8.542;2023-02-01T10:39:34;98816.72;;;5.79;69.70
69971;BME280;57301;50.328;8.542;2023-02-01T10:42:04;98808.03;;;5.66;70.22
69971;BME280;57301;50.328;8.542;2023-02-01T10:44:31;98798.78;;;5.96;69.35
69971;BME280;57301;50.328;8.542;2023-02-01T10:47:04;98802.88;;;5.76;69.92
69971;BME280;57301;50.328;8.542;2023-02-01T10:49:49;98792.38;;;5.98;69.49
69971;BME280;57301;50.328;8.542;2023-02-01T10:55:29;98791.31;;;5.65;70.87
69971;BME280;57301;50.328;8.542;2023-02-01T10:57:59;98784.44;;;5.98;69.39
69971;BME280;57301;50.328;8.542;2023-02-01T11:00:26;98788.53;;;5.91;69.77
69971;BME280;57301;50.328;8.542;2023-02-01T11:02:54;98785.56;;;5.83;70.53
69971;BME280;57301;50.328;8.542;2023-02-01T11:05:20;98780.69;;;5.89;69.21
69971;BME280;57301;50.328;8.542;2023-02-01T11:07:50;98784.22;;;6.12;69.86
69971;BME280;57301;50.328;8.542;2023-02-01T11:10:40;98784.25;;;5.88;69.05
69971;BME280;57301;50.328;8.542;2023-02-01T11:13:14;98780.84;;;6.10;69.63
69971;BME280;57301;50.328;8.542;2023-02-01T11:15:46;98788.81;;;6.22;69.74
69971;BME280;57301;50.328;8.542;2023-02-01T11:18:28;98782.88;;;6.07;68.66
69971;BME280;57301;50.328;8.542;2023-02-01T11:20:55;98778.94;;;6.12;69.38
69971;BME280;57301;50.328;8.542;2023-02-01T11:23:26;98773.16;;;6.18;69.45
69971;BME280;57301;50.328;8.542;2023-02-01T11:25:56;98780.50;;;6.04;69.88
69971;BME280;57301;50.328;8.542;2023-02-01T11:28:27;98769.78;;;6.05;69.88
69971;BME280;57301;50.328;8.542;2023-02-01T11:30:58;98770.59;;;5.95;70.45
69971;BME280;57301;50.328;8.542;2023-02-01T11:33:30;98778.59;;;6.51;68.42
69971;BME280;57301;50.328;8.542;2023-02-01T11:35:57;98765.22;;;6.41;68.92
69971;BME280;57301;50.328;8.542;2023-02-01T11:38:30;98769.81;;;6.39;68.34
69971;BME280;57301;50.328;8.542;2023-02-01T11:41:17;98776.22;;;5.90;69.72
69971;BME280;57301;50.328;8.542;2023-02-01T11:46:22;98752.19;;;7.89;63.94
69971;BME280;57301;50.328;8.542;2023-02-01T11:48:53;98759.56;;;8.06;63.16
69971;BME280;57301;50.328;8.542;2023-02-01T11:51:42;98770.19;;;7.64;64.12
69971;BME280;57301;50.328;8.542;2023-02-01T11:54:39;98761.72;;;7.70;63.02
69971;BME280;57301;50.328;8.542;2023-02-01T11:57:29;98751.63;;;7.64;63.37
69971;BME280;57301;50.328;8.542;2023-02-01T12:06:59;98746.81;;;7.79;61.79
69971;BME280;57301;50.328;8.542;2023-02-01T12:11:51;98733.75;;;8.79;59.22
69971;BME280;57301;50.328;8.542;2023-02-01T12:22:58;98724.84;;;7.67;61.55
69971;BME280;57301;50.328;8.542;2023-02-01T12:30:49;98733.09;;;9.15;58.17
69971;BME280;57301;50.328;8.542;2023-02-01T12:39:06;98731.44;;;8.65;58.99
69971;BME280;57301;50.328;8.542;2023-02-01T12:46:39;98719.13;;;7.93;61.24
69971;BME280;57301;50.328;8.542;2023-02-01T12:49:28;98711.84;;;8.25;60.38
69971;BME280;57301;50.328;8.542;2023-02-01T12:52:04;98711.41;;;8.41;59.54
69971;BME280;57301;50.328;8.542;2023-02-01T12:55:01;98691.84;;;8.21;60.09
69971;BME280;57301;50.328;8.542;2023-02-01T12:57:43;98687.44;;;7.49;62.13
69971;BME280;57301;50.328;8.542;2023-02-01T13:00:22;98686.19;;;7.33;63.57
69971;BME280;57301;50.328;8.542;2023-02-01T13:05:34;98700.41;;;7.32;63.78
69971;BME280;57301;50.328;8.542;2023-02-01T13:08:12;98704.56;;;7.24;64.04
69971;BME280;57301;50.328;8.542;2023-02-01T13:10:45;98708.38;;;6.56;66.20
69971;BME280;57301;50.328;8.542;2023-02-01T13:16:12;98721.38;;;6.59;66.94
69971;BME280;57301;50.328;8.542;2023-02-01T13:18:48;98718.75;;;6.48;67.05
69971;BME280;57301;50.328;8.542;2023-02-01T13:21:21;98715.94;;;6.61;66.68
69971;BME280;57301;50.328;8.542;2023-02-01T13:23:50;98715.38;;;6.46;67.64
69971;BME280;57301;50.328;8.542;2023-02-01T13:26:18;98714.06;;;6.52;67.43
69971;BME280;57301;50.328;8.542;2023-02-01T13:42:29;98683.91;;;7.07;65.50
69971;BME280;57301;50.328;8.542;2023-02-01T13:45:03;98679.16;;;7.11;65.13
69971;BME280;57301;50.328;8.542;2023-02-01T13:47:50;98671.28;;;7.20;64.75
69971;BME280;57301;50.328;8.542;2023-02-01T13:52:54;98661.84;;;7.48;63.96
69971;BME280;57301;50.328;8.542;2023-02-01T13:57:50;98665.06;;;7.10;64.74
69971;BME280;57301;50.328;8.542;2023-02-01T14:00:24;98675.03;;;7.60;63.39
69971;BME280;57301;50.328;8.542;2023-02-01T14:29:09;98664.25;;;8.53;59.52
69971;BME280;57301;50.328;8.542;2023-02-01T14:56:00;98697.81;;;6.23;72.90
69971;BME280;57301;50.328;8.542;2023-02-01T15:01:33;98703.59;;;5.94;74.24
69971;BME280;57301;50.328;8.542;2023-02-01T15:04:12;98703.44;;;5.84;74.85
69971;BME280;57301;50.328;8.542;2023-02-01T15:06:53;98703.19;;;5.87;74.73
69971;BME280;57301;50.328;8.542;2023-02-01T15:09:34;98713.78;;;5.87;75.16
69971;BME280;57301;50.328;8.542;2023-02-01T15:14:34;98702.47;;;5.74;76.61
69971;BME280;57301;50.328;8.542;2023-02-01T15:17:03;98704.22;;;5.51;77.59
69971;BME280;57301;50.328;8.542;2023-02-01T15:19:53;98715.28;;;5.56;77.01
69971;BME280;57301;50.328;8.542;2023-02-01T15:22:20;98716.34;;;5.43;77.67
69971;BME280;57301;50.328;8.542;2023-02-01T15:24:57;98713.94;;;5.51;77.70
69971;BME280;57301;50.328;8.542;2023-02-01T15:27:25;98726.59;;;5.47;78.25
69971;BME280;57301;50.328;8.542;2023-02-01T15:29:52;98723.84;;;5.25;78.50
69971;BME280;57301;50.328;8.542;2023-02-01T15:32:33;98725.31;;;5.29;79.32
69971;BME280;57301;50.328;8.542;2023-02-01T15:35:01;98722.28;;;5.22;79.94
69971;BME280;57301;50.328;8.542;2023-02-01T15:37:29;98723.16;;;5.34;79.69
69971;BME280;57301;50.328;8.542;2023-02-01T15:42:49;98728.72;;;5.07;80.82
69971;BME280;57301;50.328;8.542;2023-02-01T15:45:25;98743.00;;;5.04;81.38
69971;BME280;57301;50.328;8.542;2023-02-01T15:47:54;98725.94;;;5.08;81.42
69971;BME280;57301;50.328;8.542;2023-02-01T15:50:21;98733.88;;;5.08;81.18
69971;BME280;57301;50.328;8.542;2023-02-01T15:52:53;98725.56;;;5.02;82.09
69971;BME280;57301;50.328;8.542;2023-02-01T15:55:33;98732.25;;;5.19;81.65
69971;BME280;57301;50.328;8.542;2023-02-01T15:58:20;98724.59;;;5.03;81.16
69971;BME280;57301;50.328;8.542;2023-02-01T16:00:51;98733.88;;;5.08;81.17
69971;BME280;57301;50.328;8.542;2023-02-01T16:03:27;98718.06;;;5.20;81.00
69971;BME280;57301;50.328;8.542;2023-02-01T16:05:57;98712.91;;;5.18;80.74